sensor_id;sensor_type;location;lat;lon;timestamp;P1;durP1;ratioP1;P2;durP2;ratioP2
10523;SDS011;5310;48.638;9.060;2023-02-21T00:02:22;1.10;;;1.10;;
10523;SDS011;5310;48.638;9.060;2023-02-21T00:05:06;1.10;;;1.10;;
10523;SDS011;5310;48.638;9.060;2023-02-21T00:07:51;1.00;;;1.00;;
10523;SDS011;5310;48.638;9.060;2023-02-21T00:10:35;1.10;;;1.10;;
10523;SDS011;5310;48.638;9.060;2023-02-21T00:13:19;1.03;;;1.03;;
10523;SDS011;5310;48.638;9.060;2023-02-21T00:16:04;1.10;;;1.10;;
10523;SDS011;5310;48.638;9.060;2023-02-21T00:18:48;1.10;;;1.10;;
10523;SDS011;5310;48.638;9.060;2023-02-21T00:21:33;1.10;;;1.10;;
10523;SDS011;5310;48.638;9.060;2023-02-21T00:24:17;1.13;;;1.13;;
10523;SDS011;5310;48.638;9.060;2023-02-21T00:27:03;1.10;;;1.10;;
10523;SDS011;5310;48.638;9.060;2023-02-21T00:29:48;1.00;;;1.00;;
10523;SDS011;5310;48.638;9.060;2023-02-21T00:32:33;1.10;;;1.10;;
10523;SDS011;5310;48.638;9.060;2023-02-21T00:35:17;1.00;;;1.00;;
10523;SDS011;5310;48.638;9.060;2023-02-21T00:38:02;1.00;;;1.00;;
10523;SDS011;5310;48.638;9.060;2023-02-21T00:40:46;1.10;;;1.10;;
10523;SDS011;5310;48.638;9.060;2023-02-21T00:43:31;1.10;;;1.10;;
10523;SDS011;5310;48.638;9.060;2023-02-21T00:46:17;1.10;;;1.10;;
10523;SDS011;5310;48.638;9.060;2023-02-21T00:49:02;1.10;;;1.10;;
10523;SDS011;5310;48.638;9.060;2023-02-21T00:51:47;1.10;;;1.10;;
10523;SDS011;5310;48.638;9.060;2023-02-21T00:54:32;1.10;;;1.10;;
10523;SDS011;5310;48.638;9.060;2023-02-21T00:57:16;1.10;;;1.10;;
10523;SDS011;5310;48.638;9.060;2023-02-21T01:00:02;1.10;;;1.10;;
10523;SDS011;5310;48.638;9.060;2023-02-21T01:02:47;1.00;;;1.00;;
10523;SDS011;5310;48.638;9.060;2023-02-21T01:05:31;1.00;;;1.00;;
10523;SDS011;5310;48.638;9.060;2023-02-21T01:08:16;1.10;;;1.10;;
10523;SDS011;5310;48.638;9.060;2023-02-21T01:11:01;1.10;;;1.10;;
10523;SDS011;5310;48.638;9.060;2023-02-21T01:13:45;1.10;;;1.10;;
10523;SDS011;5310;48.638;9.060;2023-02-21T01:16:30;1.10;;;1.10;;
10523;SDS011;5310;48.638;9.060;2023-02-21T01:19:15;1.07;;;1.07;;
10523;SDS011;5310;48.638;9.060;2023-02-21T01:22:00;1.10;;;1.10;;
10523;SDS011;5310;48.638;9.060;2023-02-21T01:24:47;1.00;;;1.00;;
10523;SDS011;5310;48.638;9.060;2023-02-21T01:27:32;1.10;;;1.10;;
10523;SDS011;5310;48.638;9.060;2023-02-21T01:30:16;1.10;;;1.10;;
10523;SDS011;5310;48.638;9.060;2023-02-21T01:33:01;1.10;;;1.10;;
10523;SDS011;5310;48.638;9.060;2023-02-21T01:35:45;1.07;;;1.07;;
10523;SDS011;5310;48.638;9.060;2023-02-21T01:38:34;1.10;;;1.10;;
10523;SDS011;5310;48.638;9.060;2023-02-21T01:41:19;1.20;;;1.20;;
10523;SDS011;5310;48.638;9.060;2023-02-21T01:47:26;1.10;;;1.10;;
10523;SDS011;5310;48.638;9.060;2023-02-21T01:53:09;1.10;;;1.10;;
10523;SDS011;5310;48.638;9.060;2023-02-21T01:55:55;1.10;;;1.10;;
10523;SDS011;5310;48.638;9.060;2023-02-21T01:58:40;1.10;;;1.10;;
10523;SDS011;5310;48.638;9.060;2023-02-21T02:01:32;1.10;;;1.10;;
10523;SDS011;5310;48.638;9.060;2023-02-21T02:04:21;1.20;;;1.20;;
10523;SDS011;5310;48.638;9.060;2023-02-21T02:07:06;1.10;;;1.10;;
10523;SDS011;5310;48.638;9.060;2023-02-21T02:09:50;1.10;;;1.10;;
10523;SDS011;5310;48.638;9.060;2023-02-21T02:12:42;1.17;;;1.17;;
10523;SDS011;5310;48.638;9.060;2023-02-21T02:15:14;1.10;;;1.10;;
10523;SDS011;5310;48.638;9.060;2023-02-21T02:35:02;1.10;;;1.10;;
10523;SDS011;5310;48.638;9.060;2023-02-21T02:37:54;1.10;;;1.10;;
10523;SDS011;5310;48.638;9.060;2023-02-21T02:40:31;1.10;;;1.10;;
10523;SDS011;5310;48.638;9.060;2023-02-21T02:43:18;1.10;;;1.10;;
10523;SDS011;5310;48.638;9.060;2023-02-21T02:45:53;1.10;;;1.10;;
10523;SDS011;5310;48.638;9.060;2023-02-21T02:48:22;1.10;;;1.10;;
10523;SDS011;5310;48.638;9.060;2023-02-21T02:50:54;1.10;;;1.10;;
10523;SDS011;5310;48.638;9.060;2023-02-21T02:53:23;1.10;;;1.10;;
10523;SDS011;5310;48.638;9.060;2023-02-21T02:55:58;1.10;;;1.10;;
10523;SDS011;5310;48.638;9.060;2023-02-21T02:58:25;1.10;;;1.10;;
10523;SDS011;5310;48.638;9.060;2023-02-21T03:01:13;1.10;;;1.10;;
10523;SDS011;5310;48.638;9.060;2023-02-21T03:03:49;1.10;;;1.10;;
10523;SDS011;5310;48.638;9.060;2023-02-21T03:06:24;1.10;;;1.10;;
10523;SDS011;5310;48.638;9.060;2023-02-21T03:09:25;1.10;;;1.10;;
10523;SDS011;5310;48.638;9.060;2023-02-21T03:11:59;1.10;;;1.10;;
10523;SDS011;5310;48.638;9.060;2023-02-21T03:14:34;1.13;;;1.13;;
10523;SDS011;5310;48.638;9.060;2023-02-21T03:17:02;1.10;;;1.10;;
10523;SDS011;5310;48.638;9.060;2023-02-21T03:19:34;1.10;;;1.10;;
10523;SDS011;5310;48.638;9.060;2023-02-21T03:22:12;1.10;;;1.10;;
10523;SDS011;5310;48.638;9.060;2023-02-21T03:24:41;1.10;;;1.10;;
10523;SDS011;5310;48.638;9.060;2023-02-21T03:27:07;1.10;;;1.10;;
10523;SDS011;5310;48.638;9.060;2023-02-21T03:29:35;1.10;;;1.10;;
10523;SDS011;5310;48.638;9.060;2023-02-21T03:32:04;1.10;;;1.10;;
10523;SDS011;5310;48.638;9.060;2023-02-21T03:34:40;1.10;;;1.10;;
10523;SDS011;5310;48.638;9.060;2023-02-21T03:37:08;1.10;;;1.10;;
10523;SDS011;5310;48.638;9.060;2023-02-21T03:39:34;1.17;;;1.17;;
10523;SDS011;5310;48.638;9.060;2023-02-21T03:42:00;1.10;;;1.10;;
10523;SDS011;5310;48.638;9.060;2023-02-21T03:44:26;1.10;;;1.10;;
10523;SDS011;5310;48.638;9.060;2023-02-21T03:46:53;1.10;;;1.10;;
10523;SDS011;5310;48.638;9.060;2023-02-21T03:49:19;1.10;;;1.10;;
10523;SDS011;5310;48.638;9.060;2023-02-21T03:51:45;1.10;;;1.10;;
10523;SDS011;5310;48.638;9.060;2023-02-21T03:54:11;1.10;;;1.10;;
10523;SDS011;5310;48.638;9.060;2023-02-21T03:56:36;1.20;;;1.20;;
10523;SDS011;5310;48.638;9.060;2023-02-21T03:59:02;1.10;;;1.10;;
10523;SDS011;5310;48.638;9.060;2023-02-21T04:01:28;1.10;;;1.10;;
10523;SDS011;5310;48.638;9.060;2023-02-21T04:03:54;1.10;;;1.10;;
10523;SDS011;5310;48.638;9.060;2023-02-21T04:06:20;1.10;;;1.10;;
10523;SDS011;5310;48.638;9.060;2023-02-21T04:08:46;1.10;;;1.10;;
10523;SDS011;5310;48.638;9.060;2023-02-21T04:11:12;1.10;;;1.10;;
10523;SDS011;5310;48.638;9.060;2023-02-21T04:13:41;1.00;;;1.00;;
10523;SDS011;5310;48.638;9.060;2023-02-21T04:16:06;1.10;;;1.10;;
10523;SDS011;5310;48.638;9.060;2023-02-21T04:18:32;1.10;;;1.10;;
10523;SDS011;5310;48.638;9.060;2023-02-21T04:20:58;1.10;;;1.10;;
10523;SDS011;5310;48.638;9.060;2023-02-21T04:23:24;1.10;;;1.10;;
10523;SDS011;5310;48.638;9.060;2023-02-21T04:25:50;1.10;;;1.10;;
10523;SDS011;5310;48.638;9.060;2023-02-21T04:28:16;1.10;;;1.10;;
10523;SDS011;5310;48.638;9.060;2023-02-21T04:30:42;1.10;;;1.10;;
10523;SDS011;5310;48.638;9.060;2023-02-21T04:33:08;1.10;;;1.10;;
10523;SDS011;5310;48.638;9.060;2023-02-21T04:35:34;1.13;;;1.13;;
10523;SDS011;5310;48.638;9.060;2023-02-21T04:38:00;1.10;;;1.10;;
10523;SDS011;5310;48.638;9.060;2023-02-21T04:40:26;1.10;;;1.10;;
10523;SDS011;5310;48.638;9.060;2023-02-21T04:42:52;1.10;;;1.10;;
10523;SDS011;5310;48.638;9.060;2023-02-21T04:45:18;1.10;;;1.10;;
10523;SDS011;5310;48.638;9.060;2023-02-21T04:47:44;1.10;;;1.10;;
10523;SDS011;5310;48.638;9.060;2023-02-21T04:50:10;1.10;;;1.10;;
10523;SDS011;5310;48.638;9.060;2023-02-21T04:52:35;1.10;;;1.10;;
10523;SDS011;5310;48.638;9.060;2023-02-21T04:55:01;1.10;;;1.10;;
10523;SDS011;5310;48.638;9.060;2023-02-21T04:57:27;1.17;;;1.17;;
10523;SDS011;5310;48.638;9.060;2023-02-21T04:59:57;1.10;;;1.10;;
10523;SDS011;5310;48.638;9.060;2023-02-21T05:02:23;1.10;;;1.10;;
10523;SDS011;5310;48.638;9.060;2023-02-21T05:04:49;1.10;;;1.10;;
10523;SDS011;5310;48.638;9.060;2023-02-21T05:07:15;1.10;;;1.10;;
10523;SDS011;5310;48.638;9.060;2023-02-21T05:09:41;1.10;;;1.10;;
10523;SDS011;5310;48.638;9.060;2023-02-21T05:12:07;1.10;;;1.10;;
10523;SDS011;5310;48.638;9.060;2023-02-21T05:14:38;1.10;;;1.10;;
10523;SDS011;5310;48.638;9.060;2023-02-21T05:17:04;1.10;;;1.10;;
10523;SDS011;5310;48.638;9.060;2023-02-21T05:19:30;1.10;;;1.10;;
10523;SDS011;5310;48.638;9.060;2023-02-21T05:21:57;1.10;;;1.10;;
10523;SDS011;5310;48.638;9.060;2023-02-21T05:24:25;1.10;;;1.10;;
10523;SDS011;5310;48.638;9.060;2023-02-21T05:26:52;1.10;;;1.10;;
10523;SDS011;5310;48.638;9.060;2023-02-21T05:29:18;1.10;;;1.10;;
10523;SDS011;5310;48.638;9.060;2023-02-21T05:31:45;1.10;;;1.10;;
10523;SDS011;5310;48.638;9.060;2023-02-21T05:34:11;1.10;;;1.10;;
10523;SDS011;5310;48.638;9.060;2023-02-21T05:36:37;1.00;;;1.00;;
10523;SDS011;5310;48.638;9.060;2023-02-21T05:39:04;1.10;;;1.10;;
10523;SDS011;5310;48.638;9.060;2023-02-21T05:41:30;1.10;;;1.10;;
10523;SDS011;5310;48.638;9.060;2023-02-21T05:43:56;1.10;;;1.10;;
10523;SDS011;5310;48.638;9.060;2023-02-21T05:46:23;1.03;;;1.03;;
10523;SDS011;5310;48.638;9.060;2023-02-21T05:48:50;1.00;;;1.00;;
10523;SDS011;5310;48.638;9.060;2023-02-21T05:51:16;1.10;;;1.10;;
10523;SDS011;5310;48.638;9.060;2023-02-21T05:53:42;1.10;;;1.10;;
10523;SDS011;5310;48.638;9.060;2023-02-21T05:56:09;1.00;;;1.00;;
10523;SDS011;5310;48.638;9.060;2023-02-21T05:58:35;1.10;;;1.10;;
10523;SDS011;5310;48.638;9.060;2023-02-21T06:01:01;1.10;;;1.10;;
10523;SDS011;5310;48.638;9.060;2023-02-21T06:03:27;1.10;;;1.10;;
10523;SDS011;5310;48.638;9.060;2023-02-21T06:05:53;1.00;;;1.00;;
10523;SDS011;5310;48.638;9.060;2023-02-21T06:08:19;1.10;;;1.10;;
10523;SDS011;5310;48.638;9.060;2023-02-21T06:10:44;1.10;;;1.10;;
10523;SDS011;5310;48.638;9.060;2023-02-21T06:13:10;1.10;;;1.10;;
10523;SDS011;5310;48.638;9.060;2023-02-21T06:15:37;1.10;;;1.10;;
10523;SDS011;5310;48.638;9.060;2023-02-21T06:18:03;1.10;;;1.10;;
10523;SDS011;5310;48.638;9.060;2023-02-21T06:20:28;1.10;;;1.10;;
10523;SDS011;5310;48.638;9.060;2023-02-21T06:22:54;1.10;;;1.10;;
10523;SDS011;5310;48.638;9.060;2023-02-21T06:25:20;1.10;;;1.10;;
10523;SDS011;5310;48.638;9.060;2023-02-21T06:27:47;1.10;;;1.10;;
10523;SDS011;5310;48.638;9.060;2023-02-21T06:30:13;1.10;;;1.10;;
10523;SDS011;5310;48.638;9.060;2023-02-21T06:32:40;1.10;;;1.10;;
10523;SDS011;5310;48.638;9.060;2023-02-21T06:35:06;1.17;;;1.17;;
10523;SDS011;5310;48.638;9.060;2023-02-21T06:37:32;1.10;;;1.10;;
10523;SDS011;5310;48.638;9.060;2023-02-21T06:39:58;1.10;;;1.10;;
10523;SDS011;5310;48.638;9.060;2023-02-21T06:42:24;1.10;;;1.10;;
10523;SDS011;5310;48.638;9.060;2023-02-21T06:44:50;1.00;;;1.00;;
10523;SDS011;5310;48.638;9.060;2023-02-21T06:47:16;1.00;;;1.00;;
10523;SDS011;5310;48.638;9.060;2023-02-21T06:49:42;1.10;;;1.10;;
10523;SDS011;5310;48.638;9.060;2023-02-21T06:52:08;1.10;;;1.10;;
10523;SDS011;5310;48.638;9.060;2023-02-21T06:54:34;1.10;;;1.10;;
10523;SDS011;5310;48.638;9.060;2023-02-21T06:57:00;1.10;;;1.10;;
10523;SDS011;5310;48.638;9.060;2023-02-21T06:59:29;1.00;;;1.00;;
10523;SDS011;5310;48.638;9.060;2023-02-21T07:01:55;1.10;;;1.10;;
10523;SDS011;5310;48.638;9.060;2023-02-21T07:04:20;1.10;;;1.10;;
10523;SDS011;5310;48.638;9.060;2023-02-21T07:06:46;1.10;;;1.10;;
10523;SDS011;5310;48.638;9.060;2023-02-21T07:09:12;1.00;;;1.00;;
10523;SDS011;5310;48.638;9.060;2023-02-21T07:11:38;1.10;;;1.10;;
10523;SDS011;5310;48.638;9.060;2023-02-21T07:14:04;1.20;;;1.20;;
10523;SDS011;5310;48.638;9.060;2023-02-21T07:16:30;1.00;;;1.00;;
10523;SDS011;5310;48.638;9.060;2023-02-21T07:18:56;1.03;;;1.03;;
10523;SDS011;5310;48.638;9.060;2023-02-21T07:21:22;1.10;;;1.10;;
10523;SDS011;5310;48.638;9.060;2023-02-21T07:23:49;1.10;;;1.10;;
10523;SDS011;5310;48.638;9.060;2023-02-21T07:26:15;1.10;;;1.10;;
10523;SDS011;5310;48.638;9.060;2023-02-21T07:28:41;1.00;;;1.00;;
10523;SDS011;5310;48.638;9.060;2023-02-21T07:31:07;1.10;;;1.10;;
10523;SDS011;5310;48.638;9.060;2023-02-21T07:33:35;1.00;;;1.00;;
10523;SDS011;5310;48.638;9.060;2023-02-21T07:36:00;1.10;;;1.10;;
10523;SDS011;5310;48.638;9.060;2023-02-21T07:38:28;1.00;;;1.00;;
10523;SDS011;5310;48.638;9.060;2023-02-21T07:40:54;1.00;;;1.00;;
10523;SDS011;5310;48.638;9.060;2023-02-21T07:43:21;1.10;;;1.10;;
10523;SDS011;5310;48.638;9.060;2023-02-21T07:45:48;1.10;;;1.10;;
10523;SDS011;5310;48.638;9.060;2023-02-21T07:48:14;1.10;;;1.10;;
10523;SDS011;5310;48.638;9.060;2023-02-21T07:50:40;1.10;;;1.10;;
10523;SDS011;5310;48.638;9.060;2023-02-21T07:53:07;1.10;;;1.10;;
10523;SDS011;5310;48.638;9.060;2023-02-21T07:55:33;1.10;;;1.10;;
10523;SDS011;5310;48.638;9.060;2023-02-21T07:57:59;1.10;;;1.10;;
10523;SDS011;5310;48.638;9.060;2023-02-21T08:00:25;1.00;;;1.00;;
10523;SDS011;5310;48.638;9.060;2023-02-21T08:02:51;1.10;;;1.10;;
10523;SDS011;5310;48.638;9.060;2023-02-21T08:05:17;1.00;;;1.00;;
10523;SDS011;5310;48.638;9.060;2023-02-21T08:07:44;1.00;;;1.00;;
10523;SDS011;5310;48.638;9.060;2023-02-21T08:10:11;1.03;;;1.03;;
10523;SDS011;5310;48.638;9.060;2023-02-21T08:12:37;1.00;;;1.00;;
10523;SDS011;5310;48.638;9.060;2023-02-21T08:15:03;1.00;;;1.00;;
10523;SDS011;5310;48.638;9.060;2023-02-21T08:17:30;0.97;;;0.97;;
10523;SDS011;5310;48.638;9.060;2023-02-21T08:19:55;1.00;;;1.00;;
10523;SDS011;5310;48.638;9.060;2023-02-21T08:22:21;1.00;;;1.00;;
10523;SDS011;5310;48.638;9.060;2023-02-21T08:24:48;1.00;;;1.00;;
10523;SDS011;5310;48.638;9.060;2023-02-21T08:27:14;1.00;;;1.00;;
10523;SDS011;5310;48.638;9.060;2023-02-21T08:29:40;0.90;;;0.90;;
10523;SDS011;5310;48.638;9.060;2023-02-21T08:32:06;0.90;;;0.90;;
10523;SDS011;5310;48.638;9.060;2023-02-21T08:34:33;0.90;;;0.90;;
10523;SDS011;5310;48.638;9.060;2023-02-21T08:36:58;1.00;;;1.00;;
10523;SDS011;5310;48.638;9.060;2023-02-21T08:39:24;1.00;;;1.00;;
10523;SDS011;5310;48.638;9.060;2023-02-21T08:41:54;1.00;;;1.00;;
10523;SDS011;5310;48.638;9.060;2023-02-21T08:44:20;0.90;;;0.90;;
10523;SDS011;5310;48.638;9.060;2023-02-21T08:46:46;0.70;;;0.70;;
10523;SDS011;5310;48.638;9.060;2023-02-21T08:49:12;0.80;;;0.80;;
10523;SDS011;5310;48.638;9.060;2023-02-21T08:51:38;0.80;;;0.80;;
10523;SDS011;5310;48.638;9.060;2023-02-21T08:54:04;0.83;;;0.83;;
10523;SDS011;5310;48.638;9.060;2023-02-21T08:56:31;0.70;;;0.70;;
10523;SDS011;5310;48.638;9.060;2023-02-21T08:58:58;0.80;;;0.80;;
10523;SDS011;5310;48.638;9.060;2023-02-21T09:01:28;0.70;;;0.70;;
10523;SDS011;5310;48.638;9.060;2023-02-21T09:03:56;0.70;;;0.70;;
10523;SDS011;5310;48.638;9.060;2023-02-21T09:06:22;0.80;;;0.80;;
10523;SDS011;5310;48.638;9.060;2023-02-21T09:08:48;0.80;;;0.80;;
10523;SDS011;5310;48.638;9.060;2023-02-21T09:11:14;0.80;;;0.80;;
10523;SDS011;5310;48.638;9.060;2023-02-21T09:13:40;0.70;;;0.70;;
10523;SDS011;5310;48.638;9.060;2023-02-21T09:16:06;0.70;;;0.70;;
10523;SDS011;5310;48.638;9.060;2023-02-21T09:18:32;0.80;;;0.80;;
10523;SDS011;5310;48.638;9.060;2023-02-21T09:20:58;0.70;;;0.70;;
10523;SDS011;5310;48.638;9.060;2023-02-21T09:23:25;0.70;;;0.70;;
10523;SDS011;5310;48.638;9.060;2023-02-21T09:25:51;0.70;;;0.70;;
10523;SDS011;5310;48.638;9.060;2023-02-21T09:28:17;0.70;;;0.70;;
10523;SDS011;5310;48.638;9.060;2023-02-21T09:30:44;0.70;;;0.70;;
10523;SDS011;5310;48.638;9.060;2023-02-21T09:33:10;0.70;;;0.70;;
10523;SDS011;5310;48.638;9.060;2023-02-21T09:35:36;0.70;;;0.70;;
10523;SDS011;5310;48.638;9.060;2023-02-21T09:38:02;0.70;;;0.70;;
10523;SDS011;5310;48.638;9.060;2023-02-21T09:40:41;0.70;;;0.70;;
10523;SDS011;5310;48.638;9.060;2023-02-21T09:43:18;0.70;;;0.70;;
10523;SDS011;5310;48.638;9.060;2023-02-21T09:45:50;0.70;;;0.70;;
10523;SDS011;5310;48.638;9.060;2023-02-21T09:48:19;0.60;;;0.60;;
10523;SDS011;5310;48.638;9.060;2023-02-21T09:50:48;0.60;;;0.60;;
10523;SDS011;5310;48.638;9.060;2023-02-21T09:53:16;0.60;;;0.60;;
10523;SDS011;5310;48.638;9.060;2023-02-21T09:55:45;0.60;;;0.60;;
10523;SDS011;5310;48.638;9.060;2023-02-21T09:58:14;0.60;;;0.60;;
10523;SDS011;5310;48.638;9.060;2023-02-21T10:00:40;0.60;;;0.60;;
10523;SDS011;5310;48.638;9.060;2023-02-21T10:08:51;0.50;;;0.50;;
10523;SDS011;5310;48.638;9.060;2023-02-21T10:11:38;0.50;;;0.50;;
10523;SDS011;5310;48.638;9.060;2023-02-21T10:14:14;0.60;;;0.60;;
10523;SDS011;5310;48.638;9.060;2023-02-21T10:19:17;0.50;;;0.50;;
10523;SDS011;5310;48.638;9.060;2023-02-21T10:21:47;0.50;;;0.50;;
10523;SDS011;5310;48.638;9.060;2023-02-21T10:24:21;0.47;;;0.47;;
10523;SDS011;5310;48.638;9.060;2023-02-21T10:26:52;0.43;;;0.43;;
10523;SDS011;5310;48.638;9.060;2023-02-21T10:29:24;0.50;;;0.50;;
10523;SDS011;5310;48.638;9.060;2023-02-21T10:31:53;0.47;;;0.47;;
10523;SDS011;5310;48.638;9.060;2023-02-21T10:34:22;0.40;;;0.40;;
10523;SDS011;5310;48.638;9.060;2023-02-21T10:36:50;0.50;;;0.50;;
10523;SDS011;5310;48.638;9.060;2023-02-21T10:42:19;0.50;;;0.50;;
10523;SDS011;5310;48.638;9.060;2023-02-21T10:45:07;0.50;;;0.50;;
10523;SDS011;5310;48.638;9.060;2023-02-21T10:50:05;0.50;;;0.50;;
10523;SDS011;5310;48.638;9.060;2023-02-21T10:52:36;0.50;;;0.50;;
10523;SDS011;5310;48.638;9.060;2023-02-21T10:55:17;0.50;;;0.50;;
10523;SDS011;5310;48.638;9.060;2023-02-21T10:57:44;0.50;;;0.50;;
10523;SDS011;5310;48.638;9.060;2023-02-21T11:00:32;0.47;;;0.47;;
10523;SDS011;5310;48.638;9.060;2023-02-21T11:03:03;0.50;;;0.50;;
10523;SDS011;5310;48.638;9.060;2023-02-21T11:05:31;0.50;;;0.50;;
10523;SDS011;5310;48.638;9.060;2023-02-21T11:08:07;0.50;;;0.50;;
10523;SDS011;5310;48.638;9.060;2023-02-21T11:10:34;0.50;;;0.50;;
10523;SDS011;5310;48.638;9.060;2023-02-21T11:13:06;0.50;;;0.50;;
10523;SDS011;5310;48.638;9.060;2023-02-21T11:15:41;0.50;;;0.50;;
10523;SDS011;5310;48.638;9.060;2023-02-21T11:18:18;0.60;;;0.60;;
10523;SDS011;5310;48.638;9.060;2023-02-21T11:20:48;0.60;;;0.60;;
10523;SDS011;5310;48.638;9.060;2023-02-21T11:23:18;0.47;;;0.47;;
10523;SDS011;5310;48.638;9.060;2023-02-21T11:25:59;0.40;;;0.40;;
10523;SDS011;5310;48.638;9.060;2023-02-21T11:28:33;0.47;;;0.47;;
10523;SDS011;5310;48.638;9.060;2023-02-21T11:31:11;0.43;;;0.43;;
10523;SDS011;5310;48.638;9.060;2023-02-21T11:33:39;0.40;;;0.40;;
10523;SDS011;5310;48.638;9.060;2023-02-21T11:36:10;0.40;;;0.40;;
10523;SDS011;5310;48.638;9.060;2023-02-21T11:38:39;0.50;;;0.50;;
10523;SDS011;5310;48.638;9.060;2023-02-21T11:41:15;0.40;;;0.40;;
10523;SDS011;5310;48.638;9.060;2023-02-21T11:43:51;0.40;;;0.40;;
10523;SDS011;5310;48.638;9.060;2023-02-21T11:54:04;0.40;;;0.40;;
10523;SDS011;5310;48.638;9.060;2023-02-21T11:56:47;0.40;;;0.40;;
10523;SDS011;5310;48.638;9.060;2023-02-21T11:59:23;0.40;;;0.40;;
10523;SDS011;5310;48.638;9.060;2023-02-21T12:04:47;0.47;;;0.47;;
10523;SDS011;5310;48.638;9.060;2023-02-21T12:12:39;0.40;;;0.40;;
10523;SDS011;5310;48.638;9.060;2023-02-21T12:15:18;0.50;;;0.50;;
10523;SDS011;5310;48.638;9.060;2023-02-21T12:18:07;0.47;;;0.47;;
10523;SDS011;5310;48.638;9.060;2023-02-21T12:23:34;0.50;;;0.50;;
10523;SDS011;5310;48.638;9.060;2023-02-21T12:37:13;0.40;;;0.40;;
10523;SDS011;5310;48.638;9.060;2023-02-21T12:39:47;0.40;;;0.40;;
10523;SDS011;5310;48.638;9.060;2023-02-21T12:45:32;0.50;;;0.50;;
10523;SDS011;5310;48.638;9.060;2023-02-21T12:50:40;0.40;;;0.40;;
10523;SDS011;5310;48.638;9.060;2023-02-21T12:55:45;0.40;;;0.40;;
10523;SDS011;5310;48.638;9.060;2023-02-21T13:00:43;0.40;;;0.40;;
10523;SDS011;5310;48.638;9.060;2023-02-21T13:06:04;0.40;;;0.40;;
10523;SDS011;5310;48.638;9.060;2023-02-21T13:08:33;0.47;;;0.47;;
10523;SDS011;5310;48.638;9.060;2023-02-21T13:11:18;0.50;;;0.50;;
10523;SDS011;5310;48.638;9.060;2023-02-21T13:13:50;0.40;;;0.40;;
10523;SDS011;5310;48.638;9.060;2023-02-21T13:16:16;0.40;;;0.40;;
10523;SDS011;5310;48.638;9.060;2023-02-21T13:18:45;0.50;;;0.50;;
10523;SDS011;5310;48.638;9.060;2023-02-21T13:24:01;0.30;;;0.30;;
10523;SDS011;5310;48.638;9.060;2023-02-21T13:29:34;0.50;;;0.50;;
10523;SDS011;5310;48.638;9.060;2023-02-21T13:32:07;0.40;;;0.40;;
10523;SDS011;5310;48.638;9.060;2023-02-21T13:34:42;0.50;;;0.50;;
10523;SDS011;5310;48.638;9.060;2023-02-21T13:37:18;0.50;;;0.50;;
10523;SDS011;5310;48.638;9.060;2023-02-21T13:42:59;0.50;;;0.50;;
10523;SDS011;5310;48.638;9.060;2023-02-21T13:45:29;0.50;;;0.50;;
10523;SDS011;5310;48.638;9.060;2023-02-21T13:53:08;0.50;;;0.50;;
10523;SDS011;5310;48.638;9.060;2023-02-21T13:55:38;0.50;;;0.50;;
10523;SDS011;5310;48.638;9.060;2023-02-21T14:10:46;0.50;;;0.50;;
10523;SDS011;5310;48.638;9.060;2023-02-21T14:13:19;0.50;;;0.50;;
10523;SDS011;5310;48.638;9.060;2023-02-21T14:15:46;0.40;;;0.40;;
10523;SDS011;5310;48.638;9.060;2023-02-21T14:20:52;0.50;;;0.50;;
10523;SDS011;5310;48.638;9.060;2023-02-21T14:23:21;0.50;;;0.50;;
10523;SDS011;5310;48.638;9.060;2023-02-21T14:25:56;0.40;;;0.40;;
10523;SDS011;5310;48.638;9.060;2023-02-21T14:34:14;0.40;;;0.40;;
10523;SDS011;5310;48.638;9.060;2023-02-21T14:37:02;0.40;;;0.40;;
10523;SDS011;5310;48.638;9.060;2023-02-21T14:39:37;0.50;;;0.50;;
10523;SDS011;5310;48.638;9.060;2023-02-21T14:42:16;0.40;;;0.40;;
10523;SDS011;5310;48.638;9.060;2023-02-21T15:03:47;0.50;;;0.50;;
10523;SDS011;5310;48.638;9.060;2023-02-21T15:06:21;0.40;;;0.40;;
10523;SDS011;5310;48.638;9.060;2023-02-21T15:08:47;0.40;;;0.40;;
10523;SDS011;5310;48.638;9.060;2023-02-21T15:13:43;0.40;;;0.40;;
10523;SDS011;5310;48.638;9.060;2023-02-21T15:16:09;0.40;;;0.40;;
10523;SDS011;5310;48.638;9.060;2023-02-21T15:18:38;0.50;;;0.50;;
10523;SDS011;5310;48.638;9.060;2023-02-21T15:23:31;0.30;;;0.30;;
10523;SDS011;5310;48.638;9.060;2023-02-21T15:25:58;0.40;;;0.40;;
10523;SDS011;5310;48.638;9.060;2023-02-21T15:28:30;0.30;;;0.30;;
10523;SDS011;5310;48.638;9.060;2023-02-21T15:33:23;0.40;;;0.40;;
10523;SDS011;5310;48.638;9.060;2023-02-21T15:35:52;0.40;;;0.40;;
10523;SDS011;5310;48.638;9.060;2023-02-21T15:38:31;0.40;;;0.40;;
10523;SDS011;5310;48.638;9.060;2023-02-21T15:43:54;0.40;;;0.40;;
10523;SDS011;5310;48.638;9.060;2023-02-21T15:46:26;0.50;;;0.50;;
10523;SDS011;5310;48.638;9.060;2023-02-21T15:49:02;0.50;;;0.50;;
10523;SDS011;5310;48.638;9.060;2023-02-21T15:51:29;0.50;;;0.50;;
10523;SDS011;5310;48.638;9.060;2023-02-21T15:56:58;0.50;;;0.50;;
10523;SDS011;5310;48.638;9.060;2023-02-21T15:59:34;0.40;;;0.40;;
10523;SDS011;5310;48.638;9.060;2023-02-21T16:04:47;0.40;;;0.40;;
10523;SDS011;5310;48.638;9.060;2023-02-21T16:07:22;0.50;;;0.50;;
10523;SDS011;5310;48.638;9.060;2023-02-21T16:09:50;0.40;;;0.40;;
10523;SDS011;5310;48.638;9.060;2023-02-21T16:15:05;0.57;;;0.57;;
10523;SDS011;5310;48.638;9.060;2023-02-21T16:17:41;0.50;;;0.50;;
10523;SDS011;5310;48.638;9.060;2023-02-21T16:22:39;0.40;;;0.40;;
10523;SDS011;5310;48.638;9.060;2023-02-21T16:27:37;0.47;;;0.47;;
10523;SDS011;5310;48.638;9.060;2023-02-21T16:30:04;0.50;;;0.50;;
10523;SDS011;5310;48.638;9.060;2023-02-21T16:32:35;0.40;;;0.40;;
10523;SDS011;5310;48.638;9.060;2023-02-21T16:35:03;0.50;;;0.50;;
10523;SDS011;5310;48.638;9.060;2023-02-21T16:37:29;0.40;;;0.40;;
10523;SDS011;5310;48.638;9.060;2023-02-21T16:39:56;0.40;;;0.40;;
10523;SDS011;5310;48.638;9.060;2023-02-21T16:42:21;0.40;;;0.40;;
10523;SDS011;5310;48.638;9.060;2023-02-21T16:44:47;0.50;;;0.50;;
10523;SDS011;5310;48.638;9.060;2023-02-21T16:47:14;0.40;;;0.40;;
10523;SDS011;5310;48.638;9.060;2023-02-21T16:49:41;0.50;;;0.50;;
10523;SDS011;5310;48.638;9.060;2023-02-21T16:52:10;0.43;;;0.43;;
10523;SDS011;5310;48.638;9.060;2023-02-21T16:54:39;0.50;;;0.50;;
10523;SDS011;5310;48.638;9.060;2023-02-21T16:57:05;0.60;;;0.60;;
10523;SDS011;5310;48.638;9.060;2023-02-21T16:59:30;0.60;;;0.60;;
10523;SDS011;5310;48.638;9.060;2023-02-21T17:01:56;0.43;;;0.43;;
10523;SDS011;5310;48.638;9.060;2023-02-21T17:04:23;0.60;;;0.60;;
10523;SDS011;5310;48.638;9.060;2023-02-21T17:06:54;0.50;;;0.50;;
10523;SDS011;5310;48.638;9.060;2023-02-21T17:09:26;0.40;;;0.40;;
10523;SDS011;5310;48.638;9.060;2023-02-21T17:11:53;0.50;;;0.50;;
10523;SDS011;5310;48.638;9.060;2023-02-21T17:14:19;0.50;;;0.50;;
10523;SDS011;5310;48.638;9.060;2023-02-21T17:16:45;0.50;;;0.50;;
10523;SDS011;5310;48.638;9.060;2023-02-21T17:19:12;0.50;;;0.50;;
10523;SDS011;5310;48.638;9.060;2023-02-21T17:21:39;0.60;;;0.60;;
10523;SDS011;5310;48.638;9.060;2023-02-21T17:24:05;0.57;;;0.57;;
10523;SDS011;5310;48.638;9.060;2023-02-21T17:26:30;0.50;;;0.50;;
10523;SDS011;5310;48.638;9.060;2023-02-21T17:28:56;0.60;;;0.60;;
10523;SDS011;5310;48.638;9.060;2023-02-21T17:31:22;0.60;;;0.60;;
10523;SDS011;5310;48.638;9.060;2023-02-21T17:33:47;0.60;;;0.60;;
10523;SDS011;5310;48.638;9.060;2023-02-21T17:36:17;0.60;;;0.60;;
10523;SDS011;5310;48.638;9.060;2023-02-21T17:38:44;0.50;;;0.50;;
10523;SDS011;5310;48.638;9.060;2023-02-21T17:41:10;0.60;;;0.60;;
10523;SDS011;5310;48.638;9.060;2023-02-21T17:43:37;0.60;;;0.60;;
10523;SDS011;5310;48.638;9.060;2023-02-21T17:46:02;0.60;;;0.60;;
10523;SDS011;5310;48.638;9.060;2023-02-21T17:48:29;0.60;;;0.60;;
10523;SDS011;5310;48.638;9.060;2023-02-21T17:50:54;0.60;;;0.60;;
10523;SDS011;5310;48.638;9.060;2023-02-21T17:53:21;0.63;;;0.63;;
10523;SDS011;5310;48.638;9.060;2023-02-21T17:55:47;0.70;;;0.70;;
10523;SDS011;5310;48.638;9.060;2023-02-21T17:58:13;0.60;;;0.60;;
10523;SDS011;5310;48.638;9.060;2023-02-21T18:00:38;0.60;;;0.60;;
10523;SDS011;5310;48.638;9.060;2023-02-21T18:03:06;0.60;;;0.60;;